PASV Airport (Sparrevohn Lrrs) Information

FAA: SVW - ICAO: PASV

PASV Airport Location

State Alaska
County Kuskokwim
City Sparrevohn
PASV Airport is 0 miles south of Sparrevohn, AK.
Latitude 61-05-49.6100N
Longitude 155-34-29.3100W
Elevation 1,565ft

PASV Airport METARs

METAR PASV 251655Z AUTO 33008KT 6SM BKN011 M05/M05 A2915 RMK AO2 SLP899 T10511049 $
Altimeter 29.15"
Temperature -5.1°C (22.8°F)
Wind 330° at 8KT
Clouds broken at 1,100ft
Visibility 6.0mi
Time observed: 2021-10-25T16:55:00Z

PASV Airport Details

Status Operational
Activation May 1952
Ownership Military - Air Force
Usage Private
Chart MC GRATH
ATC on-site No
Beacon schedule N/A
Beacon color N/A

PASV Airport Contacts

Owner US AIR FORCE
Owner address 611 AIR SUPPORT GROUP, 10471 20TH STREET, SUITE 361, ELMENDORF AFB, AK 99506-2150
Owner phone 907-552-3442
Manager ERIK WEINGARTH
Manager address PO BOX 192, UNALAKLEET, AK 99684
Manager phone 907-438-2416

PASV Airport (Sparrevohn Lrrs) Radio Frequencies

PASV (Airport) Radio Frequencies

UNICOM N/A
Common traffic advisory frequency (CTAF) 126.2